^^

..:: Storico WU ::.. Logo MeteoMincio




  Full-screen


Lo storico viene creato da WUnderground con i dati che la stazione Meteomincio invia dal 15 maggio 2010. L' aggiornamento viene fatto ogni 5 minuti circa, tuttavia possono esserci intervalli più ampi a causa di errori, interruzioni di servizio o problemi nell' invio tramite FTP.

Storico stazione MeteoMincio
 
Giorno Sommario per Giugno 19, 2018 Unità:  Metrico    Inglese   Entrambi
« Precedente Giorno
Prossimo Giorno »
Giorno Settimana Mese Anno Custom
  Corrente: Max: Min: Media:
Temperatura: -2.3 °C -17.8 °C -6.9 °C -3.4 °C
Dew Point: -8.4 °C -17.8 °C -8.5 °C -7.6 °C
Humidità: 51 % Humidity % 44 % 65 %
Velocità vento: 75.2 km/h 0 km/h 0 km/h 59.7 km/h
Raffica: 3.1 km/h 0 km/h - -
Direzione:East - - East
Pressione: 34435.6 hPa 0 hPa 34422.1 hPa -
Precipitazioni: 0 mm      
Historical Graphs
 
 
Tabulato Dati per Giugno 19, 2018
Ora Temperatura Dew Point Pressione Direzione Velocità vento Raffica Umidità Intensità pioggia (oraria) Info solare Situazione
-17.8 °C -17.8 °C 0 hPa Calm     Humidity % 0 mm SolarRadiationWatts/m^2 W/m2 Conditions
00:04 -5.2 °C -7.9 °C 34422.1 hPa ENE 75.2 km/h 1.3 km/h 74 % 0 mm 0.00 W/m2 RA
00:09 -5.2 °C -7.7 °C 34425.5 hPa ENE 75.2 km/h   75 % 0 mm 0.00 W/m2 RA
00:15 -5.2 °C -7.6 °C 34425.5 hPa ENE 75.2 km/h   76 % 0 mm 0.00 W/m2 FEW
00:19 -5.2 °C -7.6 °C 34425.5 hPa ENE 75.2 km/h   76 % 0 mm 0.00 W/m2 FEW
00:25 -5.1 °C -7.6 °C 34428.8 hPa ENE 75.2 km/h 4.7 km/h 76 % 0 mm 0.00 W/m2 FEW
00:29 -4.9 °C -7.4 °C 34428.8 hPa NNE 75.2 km/h 5.5 km/h 76 % 0 mm 0.00 W/m2 FEW
00:34 -4.9 °C -7.3 °C 34432.2 hPa NNE 75.2 km/h 5.6 km/h 76 % 0 mm 0.00 W/m2 FEW
00:39 -4.9 °C -7.4 °C 34432.2 hPa North 75.2 km/h 6.8 km/h 76 % 0 mm 0.00 W/m2 FEW
00:44 -4.9 °C -7.4 °C 34432.2 hPa North 75.2 km/h 2.1 km/h 75 % 0 mm 0.00 W/m2 FEW
00:49 -4.9 °C -7.4 °C 34435.6 hPa North 75.2 km/h 5 km/h 75 % 0 mm 0.00 W/m2 FEW
00:55 -4.9 °C -7.5 °C 34435.6 hPa North 75.2 km/h 5.5 km/h 75 % 0 mm 0.00 W/m2 FEW
00:59 -4.9 °C -7.5 °C 34435.6 hPa NNE 75.2 km/h 8.5 km/h 75 % 0 mm 0.00 W/m2 FEW
01:04 -4.9 °C -7.5 °C 34435.6 hPa NNE 75.2 km/h 6.9 km/h 75 % 0 mm 0.00 W/m2 SCT
01:09 -4.9 °C -7.5 °C 34435.6 hPa North 75.2 km/h 6.4 km/h 75 % 0 mm 0.00 W/m2 SCT
01:14 -4.9 °C -7.5 °C 34435.6 hPa North 75.2 km/h 8 km/h 75 % 0 mm 0.00 W/m2 SCT
01:19 -4.9 °C -7.4 °C 34435.6 hPa North 75.2 km/h 6.9 km/h 76 % 0 mm 0.00 W/m2 SCT
01:24 -4.9 °C -7.5 °C 34439 hPa North 75.2 km/h 3.9 km/h 75 % 0 mm 0.00 W/m2 SCT
01:29 -4.9 °C -7.4 °C 34439 hPa NNE 75.2 km/h 4.7 km/h 75 % 0 mm 0.00 W/m2 SCT
01:34 -4.9 °C -7.6 °C 34435.6 hPa NNE 75.2 km/h 5.5 km/h 75 % 0 mm 0.00 W/m2 SCT
01:39 -4.9 °C -7.4 °C 34432.2 hPa NNE 75.2 km/h 5 km/h 76 % 0 mm 0.00 W/m2 SCT
01:45 -5.1 °C -7.5 °C 34435.6 hPa NNE 75.2 km/h 2.1 km/h 76 % 0 mm 0.00 W/m2 SCT
01:49 -5.1 °C -7.6 °C 34435.6 hPa NNE 75.2 km/h 5.5 km/h 76 % 0 mm 0.00 W/m2 SCT
01:55 -5.3 °C -7.6 °C 34435.6 hPa NE 75.2 km/h 6.9 km/h 78 % 0 mm 0.00 W/m2 SCT
01:59 -5.4 °C -7.6 °C 34435.6 hPa NE 75.2 km/h 7.2 km/h 79 % 0 mm 0.00 W/m2 SCT
02:05 -5.4 °C -7.6 °C 34435.6 hPa NE 2.6 km/h 10.3 km/h 79 % 0 mm 0.00 W/m2 SCT
02:09 -5.4 °C -7.6 °C 34435.6 hPa NE 75.2 km/h 4.7 km/h 79 % 0 mm 0.00 W/m2 SCT
02:15 -5.6 °C -7.6 °C 34435.6 hPa NE 5.1 km/h 7.7 km/h 80 % 0 mm 0.00 W/m2 SCT
02:19 -5.6 °C -7.4 °C 34435.6 hPa NE 75.2 km/h 5.6 km/h 81 % 0 mm 0.00 W/m2 SCT
02:25 -5.5 °C -7.4 °C 34439 hPa ENE 5.1 km/h 10.3 km/h 81 % 0 mm 0.00 W/m2 SCT
02:29 -5.4 °C -7.4 °C 34442.4 hPa NE 75.2 km/h 6.3 km/h 80 % 0 mm 0.00 W/m2 SCT
02:34 -5.4 °C -7.4 °C 34439 hPa NE 75.2 km/h 3.7 km/h 80 % 0 mm 0.00 W/m2 FEW
02:39 -5.4 °C -7.4 °C 34442.4 hPa North 75.2 km/h 4.7 km/h 80 % 0 mm 0.00 W/m2 FEW
02:45 -5.4 °C -7.4 °C 34442.4 hPa Calm   5.1 km/h 80 % 0 mm 0.00 W/m2 FEW
02:49 -5.4 °C -7.4 °C 34442.4 hPa North 75.2 km/h 1.3 km/h 80 % 0 mm 0.00 W/m2 FEW
02:55 -5.6 °C -7.6 °C 34442.4 hPa North 5.1 km/h 7.7 km/h 80 % 0 mm 0.00 W/m2 FEW
03:00 -5.6 °C -7.6 °C 34442.4 hPa Calm   7.7 km/h 80 % 0 mm 0.00 W/m2 FEW
03:05 -5.7 °C -7.6 °C 34442.4 hPa Calm   2.6 km/h 81 % 0 mm 0.00 W/m2 FEW
03:09 -5.7 °C -7.6 °C 34442.4 hPa North 75.2 km/h 1 km/h 81 % 0 mm 0.00 W/m2 FEW
03:14 -5.7 °C -7.6 °C 34442.4 hPa North 75.2 km/h 0.8 km/h 81 % 0 mm 0.00 W/m2 FEW
03:19 -5.7 °C -7.6 °C 34439 hPa North 75.2 km/h 2.3 km/h 81 % 0 mm 0.00 W/m2 FEW
03:25 -5.7 °C -7.6 °C 34439 hPa Calm   5.1 km/h 81 % 0 mm 0.00 W/m2 FEW
03:29 -5.8 °C -7.6 °C 34439 hPa North 75.2 km/h 1 km/h 82 % 0 mm 0.00 W/m2 FEW
03:35 -5.9 °C -7.7 °C 34442.4 hPa North 2.6 km/h 5.1 km/h 82 % 0 mm 0.00 W/m2 FEW
03:39 -5.9 °C -7.7 °C 34442.4 hPa North 75.2 km/h 2.1 km/h 82 % 0 mm 0.00 W/m2 FEW
03:45 -5.9 °C -7.7 °C 34442.4 hPa Calm   2.6 km/h 82 % 0 mm 0.00 W/m2 FEW
03:49 -5.9 °C -7.7 °C 34442.4 hPa North 75.2 km/h 5 km/h 82 % 0 mm 0.00 W/m2 FEW
03:55 -5.9 °C -7.7 °C 34442.4 hPa North 2.6 km/h 7.7 km/h 82 % 0 mm 0.00 W/m2 FEW
03:59 -6 °C -7.8 °C 34445.8 hPa North 75.2 km/h 2.3 km/h 82 % 0 mm 0.00 W/m2 FEW
04:04 -6 °C -7.7 °C 34445.8 hPa North 75.2 km/h 5 km/h 83 % 0 mm 0.00 W/m2 FEW
04:09 -6.1 °C -7.7 °C 34445.8 hPa North 75.2 km/h 5.1 km/h 83 % 0 mm 0.00 W/m2 FEW
04:15 -6.1 °C -7.7 °C 34445.8 hPa North 5.1 km/h 7.7 km/h 83 % 0 mm 0.00 W/m2 FEW
04:19 -6.1 °C -7.7 °C 34445.8 hPa North 75.2 km/h 5 km/h 83 % 0 mm 0.00 W/m2 FEW
04:24 -6.1 °C -7.7 °C 34445.8 hPa NNE 75.2 km/h 1.8 km/h 83 % 0 mm 0.00 W/m2 FEW
04:29 -6.3 °C -7.9 °C 34442.4 hPa NNE 75.2 km/h 1.6 km/h 83 % 0 mm 0.00 W/m2 FEW
04:35 -6.3 °C -7.9 °C 34445.8 hPa Calm   2.6 km/h 84 % 0 mm 0.00 W/m2 CLR
04:39 -6.4 °C -7.9 °C 34445.8 hPa NNE 75.2 km/h 0.8 km/h 85 % 0 mm 0.00 W/m2 CLR
04:45 -6.4 °C -7.9 °C 34449.2 hPa Calm     85 % 0 mm 0.00 W/m2 CLR
04:49 -6.4 °C -7.8 °C 34452.6 hPa NNE 75.2 km/h   86 % 0 mm 0.00 W/m2 CLR
04:55 -6.6 °C -7.9 °C 34452.6 hPa North 2.6 km/h 5.1 km/h 86 % 0 mm 0.00 W/m2 CLR
05:00 -6.8 °C -8.2 °C 34452.6 hPa North 2.6 km/h 5.1 km/h 86 % 0 mm 0.00 W/m2 CLR
05:05 -6.8 °C -8.1 °C 34452.6 hPa North 75.2 km/h   87 % 0 mm 0.00 W/m2 SCT
05:09 -6.8 °C -8 °C 34452.6 hPa North 75.2 km/h   87 % 0 mm 0.00 W/m2 SCT
05:15 -6.7 °C -7.9 °C 34455.9 hPa Calm     87 % 0 mm 0.00 W/m2 SCT
05:19 -6.7 °C -7.9 °C 34455.9 hPa North 75.2 km/h   87 % 0 mm 0.00 W/m2 SCT
05:25 -6.7 °C -7.9 °C 34459.3 hPa Calm     87 % 0 mm 0.00 W/m2 SCT
05:29 -6.8 °C -8.1 °C 34462.7 hPa NW 75.2 km/h 6 km/h 87 % 0 mm 0.00 W/m2 SCT
05:35 -6.9 °C -8.1 °C 34462.7 hPa NW 5.1 km/h 7.7 km/h 88 % 0 mm 0.00 W/m2 FEW
05:39 -6.9 °C -8.1 °C 34462.7 hPa WNW 75.2 km/h   88 % 0 mm 5.00 W/m2 FEW
05:44 -6.9 °C -8.1 °C 34462.7 hPa WNW 75.2 km/h   88 % 0 mm 7.00 W/m2 FEW
05:49 -6.8 °C -7.9 °C 34466.1 hPa WNW 75.2 km/h 1.8 km/h 88 % 0 mm 11.00 W/m2 FEW
05:55 -6.8 °C -7.9 °C 34466.1 hPa WNW 75.2 km/h 2.1 km/h 88 % 0 mm 14.00 W/m2 FEW
05:59 -6.8 °C -7.9 °C 34466.1 hPa WNW 75.2 km/h   88 % 0 mm 16.00 W/m2 FEW
06:04 -6.7 °C -7.9 °C 34466.1 hPa WNW 75.2 km/h   88 % 0 mm 18.00 W/m2 FEW
06:09 -6.7 °C -7.8 °C 34462.7 hPa WNW 75.2 km/h   88 % 0 mm 19.00 W/m2 FEW
06:15 -6.6 °C -7.9 °C 34466.1 hPa Calm     87 % 0 mm 23.00 W/m2 FEW
06:19 -6.6 °C -7.8 °C 34466.1 hPa WNW 75.2 km/h 0.3 km/h 87 % 0 mm 26.00 W/m2 FEW
06:25 -6.5 °C -7.7 °C 34469.5 hPa WNW 75.2 km/h 2.3 km/h 87 % 0 mm 39.00 W/m2 FEW
06:29 -6.6 °C -7.8 °C 34469.5 hPa WNW 75.2 km/h 1.3 km/h 87 % 0 mm 44.00 W/m2 FEW
06:35 -6.7 °C -7.8 °C 34469.5 hPa Calm   2.6 km/h 88 % 0 mm 51.00 W/m2 FEW
06:39 -6.6 °C -7.7 °C 34472.9 hPa WNW 75.2 km/h 1.6 km/h 88 % 0 mm 49.00 W/m2 FEW
06:45 -6.6 °C -7.8 °C 34472.9 hPa WNW 2.6 km/h 7.7 km/h 88 % 0 mm 62.00 W/m2 FEW
06:49 -6.6 °C -7.7 °C 34472.9 hPa NW 75.2 km/h 2.3 km/h 88 % 0 mm 81.00 W/m2 FEW
06:55 -6.5 °C -7.7 °C 34472.9 hPa NW 2.6 km/h 5.1 km/h 88 % 0 mm 72.00 W/m2 FEW
06:59 -6.4 °C -7.6 °C 34476.3 hPa NE 75.2 km/h 3.7 km/h 87 % 0 mm 70.00 W/m2 FEW
07:05 -6.2 °C -7.6 °C 34476.3 hPa NE 2.6 km/h 10.3 km/h 86 % 0 mm 69.00 W/m2 FEW
07:09 -6.1 °C -7.6 °C 34476.3 hPa NE 75.2 km/h 3.4 km/h 84 % 0 mm 139.00 W/m2 FEW
07:14 -5.9 °C -7.7 °C 34479.6 hPa ENE 75.2 km/h 2.9 km/h 82 % 0 mm 134.00 W/m2 FEW
07:19 -5.9 °C -7.6 °C 34479.6 hPa ENE 75.2 km/h 1.3 km/h 83 % 0 mm 77.00 W/m2 FEW
07:25 -5.9 °C -7.6 °C 34483 hPa Calm   5.1 km/h 83 % 0 mm 81.00 W/m2 FEW
07:29 -5.9 °C -7.7 °C 34483 hPa ENE 75.2 km/h 1.6 km/h 82 % 0 mm 77.00 W/m2 FEW
07:35 -5.9 °C -7.7 °C 34486.4 hPa Calm   2.6 km/h 82 % 0 mm 102.00 W/m2 SCT
07:39 -5.8 °C -7.6 °C 34486.4 hPa ENE 75.2 km/h   82 % 0 mm 130.00 W/m2 SCT
07:45 -5.5 °C -7.4 °C 34489.8 hPa Calm     81 % 0 mm 244.00 W/m2 SCT
07:49 -5.2 °C -7.2 °C 34489.8 hPa ENE 75.2 km/h 0.5 km/h 80 % 0 mm 271.00 W/m2 SCT
07:55 -5.1 °C -7.4 °C 34493.2 hPa ENE 75.2 km/h   77 % 0 mm 195.00 W/m2 SCT
07:59 -4.9 °C -7.3 °C 34493.2 hPa ENE 75.2 km/h   77 % 0 mm 134.00 W/m2 SCT
08:04 -4.7 °C -7.3 °C 34493.2 hPa ENE 75.2 km/h 2.1 km/h 75 % 0 mm 320.00 W/m2 SCT
08:09 -4.6 °C -7.3 °C 34493.2 hPa ENE 75.2 km/h 0.3 km/h 74 % 0 mm 318.00 W/m2 SCT
08:15 -4.3 °C -7.4 °C 34493.2 hPa NE 75.2 km/h 2.1 km/h 71 % 0 mm 294.00 W/m2 SCT
08:19 -4.3 °C -7.4 °C 34496.6 hPa NE 75.2 km/h 6.3 km/h 71 % 0 mm 338.00 W/m2 SCT
08:24 -4.2 °C -7.2 °C 34500 hPa NNE 75.2 km/h 7.2 km/h 72 % 0 mm 364.00 W/m2 SCT
08:29 -4.1 °C -7.1 °C 34500 hPa North 75.2 km/h 8.2 km/h 72 % 0 mm 385.00 W/m2 SCT
08:34 -4 °C -6.8 °C 34503.3 hPa NE 75.2 km/h 8.9 km/h 73 % 0 mm 406.00 W/m2 SCT
08:39 -3.9 °C -6.8 °C 34503.3 hPa ENE 75.2 km/h 6.9 km/h 73 % 0 mm 413.00 W/m2 SCT
08:44 -3.9 °C -6.9 °C 34506.7 hPa NE 75.2 km/h 8.5 km/h 72 % 0 mm 392.00 W/m2 SCT
08:49 -3.9 °C -7.1 °C 34503.3 hPa ENE 75.2 km/h 8 km/h 71 % 0 mm 301.00 W/m2 SCT
08:55 -3.8 °C -7.2 °C 34506.7 hPa ENE 12.9 km/h 20.8 km/h 69 % 0 mm 443.00 W/m2 SCT
09:00 -3.7 °C -7.2 °C 34506.7 hPa ENE 12.9 km/h 20.8 km/h 68 % 0 mm 446.00 W/m2 SCT
09:05 -3.5 °C -7 °C 34506.7 hPa ENE 7.7 km/h 20.8 km/h 68 % 0 mm 461.00 W/m2 SCT
09:09 -3.4 °C -7.1 °C 34506.7 hPa NE 75.2 km/h 11.6 km/h 67 % 0 mm 473.00 W/m2 SCT
09:14 -3.2 °C -7.1 °C 34506.7 hPa NE 75.2 km/h 12.9 km/h 66 % 0 mm 485.00 W/m2 SCT
09:19 -3.2 °C -7.3 °C 34506.7 hPa NE 75.2 km/h 18.3 km/h 64 % 0 mm 496.00 W/m2 SCT
09:25 -3.2 °C -7.3 °C 34510.1 hPa NE 12.9 km/h 18.2 km/h 64 % 0 mm 512.00 W/m2 SCT
09:29 -3 °C -7 °C 34506.7 hPa ENE 75.2 km/h 11.1 km/h 65 % 0 mm 524.00 W/m2 SCT
09:34 -2.9 °C -7.3 °C 34506.7 hPa ENE 75.2 km/h 11.6 km/h 62 % 0 mm 536.00 W/m2 FEW
09:39 -2.8 °C -7.2 °C 34510.1 hPa ENE 75.2 km/h 8.5 km/h 62 % 0 mm 554.00 W/m2 FEW
09:45 -2.7 °C -7.3 °C 34510.1 hPa East 5.1 km/h 15.6 km/h 61 % 0 mm 566.00 W/m2 FEW
09:49 -2.7 °C -7.4 °C 34510.1 hPa NE 75.2 km/h 14 km/h 60 % 0 mm 589.00 W/m2 FEW
09:55 -2.7 °C -7.6 °C 34506.7 hPa ENE 12.9 km/h 18.2 km/h 59 % 0 mm 594.00 W/m2 FEW
09:59 -2.8 °C -7.5 °C 34506.7 hPa East 75.2 km/h 14.8 km/h 60 % 0 mm 605.00 W/m2 FEW
10:04 -2.6 °C -7.3 °C 34506.7 hPa East 75.2 km/h 9.3 km/h 60 % 0 mm 622.00 W/m2 FEW
10:09 -2.7 °C -7.4 °C 34510.1 hPa ESE 75.2 km/h 15.8 km/h 60 % 0 mm 631.00 W/m2 FEW
10:15 -2.7 °C -7.1 °C 34506.7 hPa ESE 12.9 km/h 23.3 km/h 62 % 0 mm 643.00 W/m2 FEW
10:19 -2.7 °C -7.2 °C 34506.7 hPa SE 75.2 km/h 12.7 km/h 61 % 0 mm 649.00 W/m2 FEW
10:24 -2.6 °C -7.2 °C 34506.7 hPa SSE 75.2 km/h 10.3 km/h 61 % 0 mm 664.00 W/m2 FEW
10:29 -2.3 °C -6.9 °C 34506.7 hPa ESE 75.2 km/h 7.7 km/h 61 % 0 mm 679.00 W/m2 FEW
10:35 -2.3 °C -6.9 °C 34506.7 hPa East 7.7 km/h 20.8 km/h 61 % 0 mm 689.00 W/m2 CLR
10:39 -2.5 °C -7.2 °C 34506.7 hPa ESE 75.2 km/h 15 km/h 60 % 0 mm 701.00 W/m2 CLR
10:45 -2.4 °C -7.3 °C 34506.7 hPa ESE 15.6 km/h 31.1 km/h 59 % 0 mm 712.00 W/m2 CLR
10:49 -2.4 °C -7.2 °C 34503.3 hPa ESE 75.2 km/h 14.8 km/h 59 % 0 mm 726.00 W/m2 CLR
10:55 -2.3 °C -7.2 °C 34503.3 hPa ESE 15.6 km/h 31.1 km/h 59 % 0 mm 731.00 W/m2 CLR
10:59 -2.2 °C -7.3 °C 34500 hPa East 75.2 km/h 4.3 km/h 58 % 0 mm 742.00 W/m2 CLR
11:05 -2.3 °C -7.3 °C 34503.3 hPa East 12.9 km/h 20.8 km/h 58 % 0 mm 751.00 W/m2 CLR
11:09 -2.1 °C -7.4 °C 34503.3 hPa ENE 75.2 km/h 9.8 km/h 56 % 0 mm 758.00 W/m2 CLR
11:15 -2.1 °C -7.4 °C 34503.3 hPa ESE 75.2 km/h 7.7 km/h 56 % 0 mm 759.00 W/m2 CLR
11:19 -2.1 °C -7.4 °C 34503.3 hPa NE 75.2 km/h 12.4 km/h 56 % 0 mm 775.00 W/m2 CLR
11:25 -2.1 °C -7.6 °C 34503.3 hPa East 15.6 km/h 23.3 km/h 55 % 0 mm 784.00 W/m2 CLR
11:29 -2 °C -7.7 °C 34503.3 hPa ENE 75.2 km/h 14.5 km/h 54 % 0 mm 788.00 W/m2 CLR
11:35 -2 °C -8 °C 34503.3 hPa ESE 75.2 km/h 15 km/h 52 % 0 mm 800.00 W/m2 CLR
11:39 -1.9 °C -7.7 °C 34503.3 hPa NE 75.2 km/h 6.4 km/h 53 % 0 mm 802.00 W/m2 CLR
11:44 -1.6 °C -7.3 °C 34500 hPa East 75.2 km/h 6.9 km/h 54 % 0 mm 805.00 W/m2 CLR
11:49 -1.6 °C -7.4 °C 34500 hPa NE 75.2 km/h 10.3 km/h 53 % 0 mm 814.00 W/m2 CLR
11:55 -1.8 °C -7.6 °C 34500 hPa East 15.6 km/h 20.8 km/h 53 % 0 mm 817.00 W/m2 CLR
11:59 -1.6 °C -7 °C 34500 hPa East 75.2 km/h 11.6 km/h 56 % 0 mm 830.00 W/m2 CLR
12:05 -1.7 °C -7.1 °C 34500 hPa East 7.7 km/h 20.8 km/h 56 % 0 mm 828.00 W/m2 FEW
12:09 -1.4 °C -7 °C 34496.6 hPa NNE 75.2 km/h 10.1 km/h 55 % 0 mm 837.00 W/m2 FEW
12:14 -1.3 °C -7.3 °C 34500 hPa East 75.2 km/h 7.7 km/h 53 % 0 mm 844.00 W/m2 FEW
12:19 -1.5 °C -7.2 °C 34500 hPa East 75.2 km/h 14.8 km/h 54 % 0 mm 849.00 W/m2 FEW
12:24 -1.3 °C -6.9 °C 34496.6 hPa NE 75.2 km/h 9.3 km/h 55 % 0 mm 853.00 W/m2 FEW
12:29 -1.5 °C -7.1 °C 34500 hPa East 75.2 km/h 12.4 km/h 55 % 0 mm 856.00 W/m2 FEW
12:35 -1.4 °C -7.1 °C 34496.6 hPa ESE 75.2 km/h 6.3 km/h 54 % 0 mm 858.00 W/m2 FEW
12:39 -1.4 °C -6.8 °C 34493.2 hPa ENE 75.2 km/h 2.6 km/h 56 % 0 mm 861.00 W/m2 FEW
12:45 -1.3 °C -7.4 °C 34493.2 hPa East 15.6 km/h 31.1 km/h 52 % 0 mm 884.00 W/m2 FEW
12:49 -1.2 °C -7.6 °C 34489.8 hPa ENE 75.2 km/h 1.8 km/h 50 % 0 mm 886.00 W/m2 FEW
12:55 -1.2 °C -7.6 °C 34493.2 hPa East 12.9 km/h 18.2 km/h 50 % 0 mm 882.00 W/m2 FEW
12:59 -1.4 °C -8 °C 34493.2 hPa East 75.2 km/h 6 km/h 49 % 0 mm 881.00 W/m2 FEW
13:04 -1 °C -7.4 °C 34489.8 hPa North 75.2 km/h 0.8 km/h 50 % 0 mm 882.00 W/m2 SCT
13:09 -1.1 °C -7.3 °C 34489.8 hPa NE 75.2 km/h 12.7 km/h 51 % 0 mm 856.00 W/m2 SCT
13:14 -1 °C -7.3 °C 34489.8 hPa NNE 75.2 km/h 10.1 km/h 51 % 0 mm 881.00 W/m2 SCT
13:19 -0.9 °C -7.4 °C 34489.8 hPa ENE 75.2 km/h 10.1 km/h 50 % 0 mm 891.00 W/m2 SCT
13:24 -0.7 °C -7.2 °C 34486.4 hPa ENE 75.2 km/h 18.8 km/h 50 % 0 mm 877.00 W/m2 SCT
13:29 -1.2 °C -8 °C 34486.4 hPa SE 75.2 km/h 7.6 km/h 48 % 0 mm 874.00 W/m2 SCT
13:35 -1.1 °C -7.6 °C 34483 hPa East 7.7 km/h 18.2 km/h 50 % 0 mm 896.00 W/m2 SCT
13:39 -1.1 °C -6.8 °C 34483 hPa East 75.2 km/h 8.2 km/h 54 % 0 mm 902.00 W/m2 SCT
13:45 -0.9 °C -6.8 °C 34483 hPa East 15.6 km/h 20.8 km/h 53 % 0 mm 905.00 W/m2 SCT
13:49 -1.3 °C -7.3 °C 34483 hPa East 75.2 km/h 9.8 km/h 52 % 0 mm 183.00 W/m2 SCT
13:55 -1.5 °C -7.6 °C 34479.6 hPa ENE 5.1 km/h 18.2 km/h 52 % 0 mm 209.00 W/m2 SCT
13:59 -1.8 °C -7.4 °C 34479.6 hPa East 75.2 km/h 6.3 km/h 54 % 0 mm 178.00 W/m2 SCT
14:04 -1.9 °C -7.6 °C 34479.6 hPa East 75.2 km/h 12.2 km/h 54 % 0 mm 192.00 W/m2 SCT
14:09 -1.6 °C -7.1 °C 34472.9 hPa NE 75.2 km/h 7.7 km/h 55 % 0 mm 888.00 W/m2 SCT
14:15 -1.2 °C -7.4 °C 34472.9 hPa ESE 75.2 km/h 9.7 km/h 51 % 0 mm 911.00 W/m2 SCT
14:19 -0.9 °C -7.2 °C 34472.9 hPa NE 75.2 km/h 10.1 km/h 51 % 0 mm 902.00 W/m2 SCT
14:24 -0.9 °C -7 °C 34472.9 hPa SE 75.2 km/h 4.2 km/h 52 % 0 mm 919.00 W/m2 SCT
14:29 -0.8 °C -7.2 °C 34472.9 hPa ENE 75.2 km/h 13.7 km/h 50 % 0 mm 904.00 W/m2 SCT
14:35 -0.8 °C -7.1 °C 34469.5 hPa ENE 7.7 km/h 18.2 km/h 51 % 0 mm 909.00 W/m2 SCT
14:39 -1.2 °C -7.1 °C 34469.5 hPa East 75.2 km/h 15.6 km/h 53 % 0 mm 227.00 W/m2 SCT
14:44 -1.7 °C -7.1 °C 34469.5 hPa East 75.2 km/h 11.6 km/h 56 % 0 mm 204.00 W/m2 SCT
14:49 -1.4 °C -7.2 °C 34469.5 hPa East 75.2 km/h 12.7 km/h 54 % 0 mm 902.00 W/m2 SCT
14:55 -1.1 °C -7 °C 34466.1 hPa ESE 12.9 km/h 18.2 km/h 53 % 0 mm 895.00 W/m2 SCT
14:59 -1 °C -7.1 °C 34466.1 hPa ESE 75.2 km/h 13.7 km/h 52 % 0 mm 872.00 W/m2 SCT
15:04 -1 °C -7.4 °C 34469.5 hPa ESE 75.2 km/h 11.1 km/h 50 % 0 mm 865.00 W/m2 SCT
15:09 -1.1 °C -7.7 °C 34466.1 hPa East 75.2 km/h 5.1 km/h 49 % 0 mm 816.00 W/m2 SCT
15:15 -1.2 °C -6.9 °C 34466.1 hPa East 7.7 km/h 15.6 km/h 54 % 0 mm 427.00 W/m2 SCT
15:19 -1.1 °C -7.3 °C 34466.1 hPa East 75.2 km/h 11.1 km/h 51 % 0 mm 775.00 W/m2 SCT
15:25 -1 °C -7.1 °C 34462.7 hPa ESE 5.1 km/h 18.2 km/h 52 % 0 mm 788.00 W/m2 SCT
15:29 -0.9 °C -7.7 °C 34459.3 hPa ESE 75.2 km/h 10.3 km/h 48 % 0 mm 777.00 W/m2 SCT
15:35 -1 °C -7.8 °C 34462.7 hPa ESE 7.7 km/h 23.3 km/h 48 % 0 mm 773.00 W/m2 SCT
15:39 -0.9 °C -7.9 °C 34455.9 hPa East 75.2 km/h 0.3 km/h 47 % 0 mm 786.00 W/m2 SCT
15:45 -0.6 °C -7.7 °C 34455.9 hPa East 5.1 km/h 10.3 km/h 47 % 0 mm 754.00 W/m2 SCT
15:49 -0.7 °C -7.6 °C 34455.9 hPa East 75.2 km/h 15.3 km/h 48 % 0 mm 729.00 W/m2 SCT
15:54 -0.7 °C -7.2 °C 34452.6 hPa East 75.2 km/h 6.4 km/h 50 % 0 mm 721.00 W/m2 SCT
15:59 -0.9 °C -7.5 °C 34449.2 hPa ENE 75.2 km/h 15.3 km/h 49 % 0 mm 693.00 W/m2 SCT
16:05 -0.8 °C -7.8 °C 34452.6 hPa East 12.9 km/h 23.3 km/h 47 % 0 mm 693.00 W/m2 SCT
16:09 -1.2 °C -8 °C 34449.2 hPa East 75.2 km/h 12.7 km/h 48 % 0 mm 127.00 W/m2 SCT
16:14 -1.3 °C -7.9 °C 34449.2 hPa East 75.2 km/h 6.4 km/h 49 % 0 mm 118.00 W/m2 SCT
16:19 -0.9 °C -8.5 °C 34445.8 hPa ENE 75.2 km/h 7.2 km/h 44 % 0 mm 691.00 W/m2 SCT
16:24 -0.7 °C -7.9 °C 34445.8 hPa East 75.2 km/h 7.2 km/h 46 % 0 mm 680.00 W/m2 SCT
16:29 -0.8 °C -7.8 °C 34445.8 hPa SE 75.2 km/h 13.7 km/h 47 % 0 mm 659.00 W/m2 SCT
16:34 -0.8 °C -7.8 °C 34445.8 hPa East 75.2 km/h 17.9 km/h 47 % 0 mm 649.00 W/m2 SCT
16:39 -0.8 °C -7.4 °C 34445.8 hPa East 75.2 km/h 10.9 km/h 49 % 0 mm 649.00 W/m2 SCT
16:45 -0.9 °C -7.9 °C 34445.8 hPa East 75.2 km/h 8.2 km/h 47 % 0 mm 608.00 W/m2 SCT
16:49 -1 °C -7.9 °C 34445.8 hPa SE 75.2 km/h 10.1 km/h 47 % 0 mm 118.00 W/m2 SCT
16:54 -1.2 °C -7.8 °C 34442.4 hPa ESE 75.2 km/h 3.9 km/h 49 % 0 mm 598.00 W/m2 SCT
16:59 -0.8 °C -7.9 °C 34442.4 hPa ESE 75.2 km/h 3.4 km/h 46 % 0 mm 594.00 W/m2 SCT
17:05 -0.7 °C -7.9 °C 34442.4 hPa ESE 5.1 km/h 12.9 km/h 46 % 0 mm 598.00 W/m2 SCT
17:09 -0.8 °C -7.8 °C 34442.4 hPa ESE 75.2 km/h 9.3 km/h 47 % 0 mm 540.00 W/m2 SCT
17:14 -1 °C -7.4 °C 34442.4 hPa East 75.2 km/h 6.9 km/h 50 % 0 mm 485.00 W/m2 SCT
17:19 -0.9 °C -8.1 °C 34439 hPa SE 75.2 km/h 1.6 km/h 46 % 0 mm 454.00 W/m2 SCT
17:24 -0.9 °C -7.6 °C 34439 hPa ENE 75.2 km/h 5.1 km/h 49 % 0 mm 200.00 W/m2 SCT
17:29 -1 °C -7.4 °C 34442.4 hPa ESE 75.2 km/h 6.3 km/h 50 % 0 mm 506.00 W/m2 SCT
17:34 -0.9 °C -7.8 °C 34439 hPa ENE 75.2 km/h 1.8 km/h 47 % 0 mm 494.00 W/m2 FEW
17:39 -0.8 °C -7.7 °C 34435.6 hPa East 75.2 km/h 6.4 km/h 48 % 0 mm 475.00 W/m2 FEW
17:44 -0.9 °C -7.6 °C 34435.6 hPa East 75.2 km/h 6.4 km/h 49 % 0 mm 461.00 W/m2 FEW
17:49 -1 °C -8 °C 34435.6 hPa East 75.2 km/h 8.9 km/h 47 % 0 mm 445.00 W/m2 FEW
17:54 -1.1 °C -7.9 °C 34432.2 hPa ENE 75.2 km/h 8.2 km/h 48 % 0 mm 287.00 W/m2 FEW
17:59 -0.9 °C -7.7 °C 34435.6 hPa East 75.2 km/h 5.6 km/h 48 % 0 mm 424.00 W/m2 FEW
18:04 -1 °C -8.2 °C 34432.2 hPa ESE 75.2 km/h 5.1 km/h 46 % 0 mm 403.00 W/m2 FEW
18:09 -0.9 °C -8.3 °C 34432.2 hPa East 75.2 km/h 6.9 km/h 45 % 0 mm 385.00 W/m2 FEW
18:14 -0.9 °C -8.1 °C 34432.2 hPa East 75.2 km/h 6.8 km/h 46 % 0 mm 367.00 W/m2 FEW
18:19 -1.1 °C -7.3 °C 34432.2 hPa East 75.2 km/h 4.3 km/h 51 % 0 mm 357.00 W/m2 FEW
18:24 -1.2 °C -7.6 °C 34435.6 hPa East 75.2 km/h 6.9 km/h 50 % 0 mm 339.00 W/m2 FEW
18:29 -1.2 °C -7.8 °C 34432.2 hPa East 75.2 km/h 11.6 km/h 49 % 0 mm 322.00 W/m2 FEW
18:34 -1.3 °C -7.8 °C 34432.2 hPa East 75.2 km/h 7.2 km/h 49 % 0 mm 306.00 W/m2 FEW
18:39 -1.3 °C -8.1 °C 34432.2 hPa East 75.2 km/h 5 km/h 48 % 0 mm 290.00 W/m2 FEW
18:45 -1.3 °C -8.4 °C 34432.2 hPa East 75.2 km/h 5 km/h 46 % 0 mm 279.00 W/m2 FEW
18:49 -1.3 °C -8.3 °C 34432.2 hPa East 75.2 km/h 8.9 km/h 47 % 0 mm 77.00 W/m2 FEW
18:54 -1.3 °C -8.3 °C 34432.2 hPa East 75.2 km/h 8.5 km/h 47 % 0 mm 77.00 W/m2 FEW
18:59 -1.4 °C -8 °C 34432.2 hPa East 75.2 km/h 9.7 km/h 49 % 0 mm 53.00 W/m2 FEW
19:05 -1.6 °C -7.9 °C 34432.2 hPa East 75.2 km/h 11.6 km/h 50 % 0 mm 51.00 W/m2 FEW
19:09 -1.6 °C -8.2 °C 34428.8 hPa East 75.2 km/h 3.4 km/h 49 % 0 mm 49.00 W/m2 FEW
19:14 -1.6 °C -8.2 °C 34432.2 hPa East 75.2 km/h 5.6 km/h 49 % 0 mm 47.00 W/m2 FEW
19:19 -1.7 °C -8.1 °C 34432.2 hPa East 75.2 km/h 5.5 km/h 50 % 0 mm 46.00 W/m2 FEW
19:24 -1.7 °C -8.1 °C 34432.2 hPa East 75.2 km/h 6.9 km/h 50 % 0 mm 46.00 W/m2 FEW
19:29 -1.8 °C -8.3 °C 34432.2 hPa East 75.2 km/h 7.6 km/h 49 % 0 mm 44.00 W/m2 FEW
19:34 -1.8 °C -8.2 °C 34432.2 hPa East 75.2 km/h 7.6 km/h 50 % 0 mm 42.00 W/m2 BKN
19:39 -1.8 °C -8.2 °C 34432.2 hPa East 75.2 km/h 6 km/h 50 % 0 mm 40.00 W/m2 BKN
19:44 -1.9 °C -8.1 °C 34432.2 hPa East 75.2 km/h 5.1 km/h 51 % 0 mm 39.00 W/m2 BKN
19:49 -2 °C -8.3 °C 34432.2 hPa East 75.2 km/h 6 km/h 50 % 0 mm 35.00 W/m2 BKN
19:54 -2.1 °C -8.2 °C 34432.2 hPa East 75.2 km/h 6.9 km/h 51 % 0 mm 33.00 W/m2 BKN
19:59 -2.1 °C -8.3 °C 34432.2 hPa East 75.2 km/h 4.7 km/h 51 % 0 mm 32.00 W/m2 BKN
20:04 -2.1 °C -8.3 °C 34432.2 hPa East 75.2 km/h 4.3 km/h 51 % 0 mm 30.00 W/m2 BKN
20:09 -2.2 °C -8.2 °C 34435.6 hPa East 75.2 km/h 2.9 km/h 52 % 0 mm 26.00 W/m2 BKN
20:14 -2.2 °C -8.2 °C 34435.6 hPa East 75.2 km/h 5.1 km/h 52 % 0 mm 25.00 W/m2 BKN
20:19 -2.3 °C -8.4 °C 34435.6 hPa East 75.2 km/h 3.1 km/h 51 % 0 mm 23.00 W/m2 BKN
Stazione Meteorologica MeteoMincio Rivalta s/M (MN)
Con i complimenti di Weather Underground - 4 mb


METEO PILLOLE
La più disastrosa inondazione causata da cicloni
Bangladesh
Nel novembre 1970 un ciclone nel Golfo del Bangladesh uccise circa 300.000 persone.

Share
Non seguire questo link o sarai bannato dal sito!